Time;durP1;ratioP1;P1;durP2;ratioP2;P2;SDS_P1;SDS_P2;PMS_P1;PMS_P2;Temp;Humidity;BMP_temperature;BMP_pressure;BME280_temperature;BME280_humidity;BME280_pressure;Samples;Min_cycle;Max_cycle;Signal;HPM_P1;HPM_P2
2021/10/15 00:00:53;;;;;;;;;;;;;;;16.46;77.68;101684.75;10335038;28;19924;-89
2021/10/15 00:11:12;;;;;;;;;;;;;;;16.38;78.22;101668.56;10341278;28;19918;-89
2021/10/15 00:16:12;;;;;;;;;;;;;;;16.52;77.50;101656.50;10342776;28;19918;-90
2021/10/15 00:21:12;;;;;;;;;;;;;;;16.51;76.59;101651.28;10343047;28;20353;-90
2021/10/15 00:26:12;;;;;;;;;;;;;;;16.52;77.79;101650.19;10343357;28;20400;-86
2021/10/15 00:31:13;;;;;;;;;;;;;;;16.53;77.39;101651.91;10341270;28;19920;-87
2021/10/15 00:36:13;;;;;;;;;;;;;;;16.56;77.40;101642.41;10342240;28;20357;-87
2021/10/15 00:41:13;;;;;;;;;;;;;;;16.60;76.98;101635.44;10340028;28;20363;-88
2021/10/15 00:46:13;;;;;;;;;;;;;;;16.54;76.43;101625.41;10341754;28;20021;-87
2021/10/15 00:51:14;;;;;;;;;;;;;;;16.48;77.40;101618.91;10341882;28;19922;-87
2021/10/15 00:56:14;;;;;;;;;;;;;;;16.50;77.61;101612.16;10340445;28;19929;-88
2021/10/15 01:01:14;;;;;;;;;;;;;;;16.49;77.63;101613.19;10324513;28;20434;-87
2021/10/15 01:06:14;;;;;;;;;;;;;;;16.51;76.97;101597.41;10341852;28;19941;-88
2021/10/15 01:11:15;;;;;;;;;;;;;;;16.54;77.32;101587.13;10340356;28;20358;-88
2021/10/15 01:16:15;;;;;;;;;;;;;;;16.58;77.19;101585.59;10338990;28;19914;-87
2021/10/15 01:21:15;;;;;;;;;;;;;;;16.63;77.11;101580.31;10339274;28;20017;-88
2021/10/15 01:26:15;;;;;;;;;;;;;;;16.64;76.85;101579.25;10340642;28;19921;-88
2021/10/15 01:31:16;;;;;;;;;;;;;;;16.70;76.43;101581.94;10340168;28;20016;-89
2021/10/15 01:36:16;;;;;;;;;;;;;;;16.71;76.62;101575.41;10339867;28;19922;-89
2021/10/15 01:41:16;;;;;;;;;;;;;;;16.59;77.09;101560.78;10339400;28;19913;-89
2021/10/15 01:46:17;;;;;;;;;;;;;;;16.78;77.94;101566.34;10340878;28;20027;-89
2021/10/15 01:51:17;;;;;;;;;;;;;;;16.94;77.70;101549.38;10339218;28;19925;-88
2021/10/15 01:56:17;;;;;;;;;;;;;;;16.94;77.61;101539.28;10339343;28;19972;-89
2021/10/15 02:01:17;;;;;;;;;;;;;;;17.04;77.45;101538.78;10339627;28;20293;-88
2021/10/15 02:06:18;;;;;;;;;;;;;;;17.12;77.46;101541.22;10339003;28;19921;-88
2021/10/15 02:11:18;;;;;;;;;;;;;;;17.11;76.66;101531.34;10338525;28;19998;-88
2021/10/15 02:16:18;;;;;;;;;;;;;;;17.12;77.07;101518.47;10339185;28;20337;-89
2021/10/15 02:21:19;;;;;;;;;;;;;;;17.12;77.27;101518.47;10336703;28;19984;-89
2021/10/15 02:26:20;;;;;;;;;;;;;;;17.28;76.68;101519.78;10339034;28;19918;-89
2021/10/15 02:31:20;;;;;;;;;;;;;;;17.19;76.95;101508.28;10338349;28;20376;-88
2021/10/15 02:36:20;;;;;;;;;;;;;;;17.15;76.48;101515.28;10338281;28;19914;-88
2021/10/15 02:41:20;;;;;;;;;;;;;;;17.10;76.68;101524.19;10337422;28;19972;-88
2021/10/15 02:46:21;;;;;;;;;;;;;;;17.12;76.58;101497.41;10339258;28;19966;-88
2021/10/15 02:51:21;;;;;;;;;;;;;;;16.91;76.37;101486.88;10340531;28;19967;-88
2021/10/15 02:56:21;;;;;;;;;;;;;;;16.80;75.73;101483.00;10336152;28;19922;-88
2021/10/15 03:01:21;;;;;;;;;;;;;;;16.81;76.64;101487.41;10336838;28;19918;-88
2021/10/15 03:06:22;;;;;;;;;;;;;;;16.93;76.59;101487.50;10336839;28;20396;-88
2021/10/15 03:11:22;;;;;;;;;;;;;;;16.93;76.85;101491.09;10336109;28;19964;-87
2021/10/15 03:16:22;;;;;;;;;;;;;;;17.00;76.19;101480.06;10336439;28;19924;-89
2021/10/15 03:21:22;;;;;;;;;;;;;;;16.99;76.28;101483.06;10336507;28;19922;-88
2021/10/15 03:26:22;;;;;;;;;;;;;;;17.17;75.56;101477.59;10335253;28;19918;-87
2021/10/15 03:31:23;;;;;;;;;;;;;;;17.19;75.25;101468.06;10336403;28;20369;-89
2021/10/15 03:36:23;;;;;;;;;;;;;;;17.11;75.63;101464.81;10336341;28;19917;-88
2021/10/15 03:41:23;;;;;;;;;;;;;;;17.06;76.31;101473.69;10341355;28;19914;-88
2021/10/15 03:46:23;;;;;;;;;;;;;;;17.02;75.93;101468.91;10344216;28;19918;-88
2021/10/15 03:51:24;;;;;;;;;;;;;;;17.10;76.39;101485.03;10345382;28;20319;-87
2021/10/15 03:56:24;;;;;;;;;;;;;;;17.20;74.54;101477.16;10344456;28;20001;-87
2021/10/15 04:01:24;;;;;;;;;;;;;;;16.98;76.54;101476.75;10345142;28;20321;-88
2021/10/15 04:06:24;;;;;;;;;;;;;;;17.01;75.64;101481.78;10344638;28;20365;-88
2021/10/15 04:11:24;;;;;;;;;;;;;;;16.96;75.40;101476.94;10343619;28;19964;-87
2021/10/15 04:16:25;;;;;;;;;;;;;;;17.03;73.58;101462.38;10343820;28;19972;-88
2021/10/15 04:21:25;;;;;;;;;;;;;;;17.03;76.53;101470.59;10344379;28;20392;-88
2021/10/15 04:26:25;;;;;;;;;;;;;;;16.96;75.81;101463.28;10343910;28;19944;-86
2021/10/15 04:31:26;;;;;;;;;;;;;;;16.91;75.29;101470.47;10343414;28;19918;-87
2021/10/15 04:36:26;;;;;;;;;;;;;;;17.11;76.02;101459.34;10345299;28;19917;-88
2021/10/15 04:41:26;;;;;;;;;;;;;;;17.11;75.61;101467.56;10342811;28;19918;-88
2021/10/15 04:46:27;;;;;;;;;;;;;;;17.01;73.12;101468.09;10343216;28;20365;-89
2021/10/15 04:51:28;;;;;;;;;;;;;;;16.88;75.89;101465.47;10341632;28;19922;-88
2021/10/15 04:56:29;;;;;;;;;;;;;;;16.92;76.36;101470.28;10342429;28;19947;-86
2021/10/15 05:01:29;;;;;;;;;;;;;;;16.90;75.55;101464.19;10327305;28;19913;-86
2021/10/15 05:06:29;;;;;;;;;;;;;;;16.89;75.65;101457.03;10380431;28;20277;-86
2021/10/15 05:11:30;;;;;;;;;;;;;;;16.94;76.18;101462.69;10380930;28;20353;-87
2021/10/15 05:16:30;;;;;;;;;;;;;;;16.93;75.72;101462.91;10381698;28;19916;-84
2021/10/15 05:21:30;;;;;;;;;;;;;;;17.05;75.42;101447.41;10381323;28;19917;-86
2021/10/15 05:26:31;;;;;;;;;;;;;;;16.99;76.13;101458.44;10381873;28;19933;-88
2021/10/15 05:31:31;;;;;;;;;;;;;;;16.86;75.05;101468.44;10369028;28;19920;-87
2021/10/15 05:36:31;;;;;;;;;;;;;;;16.56;75.51;101478.34;10357135;28;19944;-87
2021/10/15 05:41:31;;;;;;;;;;;;;;;16.11;76.25;101486.66;10383792;28;19902;-88
2021/10/15 05:46:32;;;;;;;;;;;;;;;16.07;76.42;101485.44;10376858;28;19925;-88
2021/10/15 05:51:36;;;;;;;;;;;;;;;16.00;76.05;101480.84;10355372;28;19928;-88
2021/10/15 06:01:36;;;;;;;;;;;;;;;15.86;77.40;101490.19;10338340;28;20008;-89
2021/10/15 06:17:01;;;;;;;;;;;;;;;15.25;77.04;101532.38;10337293;28;19922;-80
2021/10/15 06:22:01;;;;;;;;;;;;;;;14.78;78.08;101537.03;10336348;28;19933;-80
2021/10/15 06:27:01;;;;;;;;;;;;;;;14.67;78.72;101553.16;10337063;28;19925;-78
2021/10/15 06:32:01;;;;;;;;;;;;;;;14.61;78.35;101561.16;10337032;28;19936;-78
2021/10/15 06:37:02;;;;;;;;;;;;;;;14.63;78.06;101577.28;10336555;28;20366;-78
2021/10/15 06:42:02;;;;;;;;;;;;;;;14.43;78.56;101588.97;10333651;28;19917;-78
2021/10/15 06:47:02;;;;;;;;;;;;;;;14.45;78.83;101607.81;10335815;28;19964;-78
2021/10/15 06:52:03;;;;;;;;;;;;;;;14.33;78.83;101607.59;10334670;28;20008;-79
2021/10/15 06:57:03;;;;;;;;;;;;;;;14.34;78.21;101625.63;10335252;28;19918;-78
2021/10/15 07:02:03;;;;;;;;;;;;;;;14.25;78.18;101626.00;10335463;28;19964;-78
2021/10/15 07:07:03;;;;;;;;;;;;;;;14.35;77.36;101638.19;10335014;28;20358;-78
2021/10/15 07:12:04;;;;;;;;;;;;;;;14.24;77.43;101640.66;10334103;28;19925;-78
2021/10/15 07:17:04;;;;;;;;;;;;;;;14.35;77.24;101659.97;10335045;28;19945;-78
2021/10/15 07:22:04;;;;;;;;;;;;;;;14.40;76.72;101659.38;10334382;28;19972;-78
2021/10/15 07:27:04;;;;;;;;;;;;;;;14.48;76.08;101670.09;10334611;28;19925;-78
2021/10/15 07:32:05;;;;;;;;;;;;;;;14.52;76.64;101673.31;10333643;28;20360;-78
2021/10/15 07:37:05;;;;;;;;;;;;;;;14.61;76.39;101682.94;10333974;28;19968;-79
2021/10/15 07:42:05;;;;;;;;;;;;;;;14.68;75.92;101699.31;10331696;28;20325;-78
2021/10/15 07:47:06;;;;;;;;;;;;;;;14.75;75.71;101700.19;10333957;28;19914;-79
2021/10/15 07:52:06;;;;;;;;;;;;;;;14.76;75.31;101708.16;10333879;28;19921;-79
2021/10/15 07:57:06;;;;;;;;;;;;;;;14.74;75.84;101717.59;10332209;28;19956;-80
2021/10/15 08:02:07;;;;;;;;;;;;;;;14.97;75.62;101725.44;10332401;28;19914;-79
2021/10/15 08:07:07;;;;;;;;;;;;;;;15.19;74.98;101723.34;10333648;28;19914;-79
2021/10/15 08:12:07;;;;;;;;;;;;;;;15.32;75.50;101737.88;10333744;28;19918;-79
2021/10/15 08:17:07;;;;;;;;;;;;;;;15.57;75.00;101740.81;10333673;28;20004;-80
2021/10/15 08:22:07;;;;;;;;;;;;;;;16.52;75.32;101740.44;10332563;28;19929;-81
2021/10/15 08:27:08;;;;;;;;;;;;;;;16.96;74.73;101745.09;10338776;28;20011;-81
2021/10/15 08:32:08;;;;;;;;;;;;;;;16.67;73.74;101757.41;10341648;28;20348;-82
2021/10/15 08:37:08;;;;;;;;;;;;;;;16.32;73.85;101767.84;10341057;28;20023;-81
2021/10/15 08:42:09;;;;;;;;;;;;;;;16.35;73.91;101781.09;10340484;28;19931;-81
2021/10/15 08:47:09;;;;;;;;;;;;;;;16.19;72.97;101778.81;10338725;28;19922;-82
2021/10/15 08:52:13;;;;;;;;;;;;;;;16.15;74.45;101791.22;10339397;28;20020;-82
2021/10/15 08:57:13;;;;;;;;;;;;;;;16.43;72.17;101796.41;10341904;28;20242;-82
2021/10/15 09:02:14;;;;;;;;;;;;;;;16.19;73.93;101804.25;10341238;28;20028;-82
2021/10/15 09:07:15;;;;;;;;;;;;;;;15.86;73.61;101815.22;10340517;28;19914;-83
2021/10/15 09:12:17;;;;;;;;;;;;;;;16.25;74.31;101821.69;10339763;28;19918;-86
2021/10/15 09:17:19;;;;;;;;;;;;;;;16.63;74.01;101823.72;10340664;28;19914;-86
2021/10/15 09:22:23;;;;;;;;;;;;;;;17.74;75.56;101834.31;10341741;28;20020;-87
2021/10/15 09:27:23;;;;;;;;;;;;;;;18.73;71.80;101828.94;10340444;28;20004;-87
2021/10/15 09:32:24;;;;;;;;;;;;;;;19.51;72.03;101830.88;10342004;28;20346;-87
2021/10/15 09:37:26;;;;;;;;;;;;;;;20.02;71.86;101834.94;10338784;28;19913;-88
2021/10/15 09:42:27;;;;;;;;;;;;;;;19.96;71.11;101844.97;10339626;28;19964;-87
2021/10/15 09:47:28;;;;;;;;;;;;;;;20.40;70.27;101845.47;10338888;28;19914;-88
2021/10/15 09:52:32;;;;;;;;;;;;;;;20.55;69.93;101852.41;10338568;28;19926;-88
2021/10/15 09:57:34;;;;;;;;;;;;;;;20.88;72.26;101849.84;10338399;28;19971;-88
2021/10/15 10:02:34;;;;;;;;;;;;;;;21.05;69.61;101858.19;10338988;28;19962;-89
2021/10/15 10:07:35;;;;;;;;;;;;;;;21.81;64.25;101863.50;10339057;28;20293;-89
2021/10/15 10:12:36;;;;;;;;;;;;;;;21.51;69.02;101864.63;10341432;28;19925;-90
2021/10/15 10:17:39;;;;;;;;;;;;;;;20.94;66.33;101861.81;10342684;28;20449;-91
2021/10/15 10:22:43;;;;;;;;;;;;;;;21.54;66.78;101866.91;10342423;28;19928;-92
2021/10/15 10:27:44;;;;;;;;;;;;;;;21.82;65.64;101878.94;10345318;28;19933;-92
2021/10/15 10:32:58;;;;;;;;;;;;;;;22.78;57.24;101870.53;10345343;28;19914;-93
2021/10/15 10:38:17;;;;;;;;;;;;;;;22.42;67.59;101877.47;10345394;28;19928;-92
2021/10/15 10:43:17;;;;;;;;;;;;;;;21.12;61.34;101880.94;10344133;28;20008;-91
2021/10/15 10:48:18;;;;;;;;;;;;;;;20.37;59.81;101894.63;10347911;28;20393;-91
2021/10/15 10:53:18;;;;;;;;;;;;;;;20.98;61.68;101907.06;10346611;28;19926;-92
2021/10/15 10:58:38;;;;;;;;;;;;;;;20.78;64.97;101912.13;10345782;28;20321;-92
2021/10/15 11:03:39;;;;;;;;;;;;;;;20.21;64.38;101919.03;10343571;28;20247;-93
2021/10/15 11:08:42;;;;;;;;;;;;;;;21.27;65.95;101915.38;10344744;28;19993;-94
2021/10/15 11:13:42;;;;;;;;;;;;;;;21.37;66.64;101921.13;10358979;28;19936;-93
2021/10/15 11:18:42;;;;;;;;;;;;;;;22.20;64.72;101935.34;10344424;28;19918;-93
2021/10/15 11:23:43;;;;;;;;;;;;;;;22.71;61.36;101934.22;10348373;28;19922;-93
2021/10/15 11:28:43;;;;;;;;;;;;;;;22.19;59.58;101955.75;10347950;28;19922;-94
2021/10/15 11:33:45;;;;;;;;;;;;;;;22.96;54.23;101944.84;10331457;28;19925;-93
2021/10/15 11:38:45;;;;;;;;;;;;;;;22.36;56.66;101945.56;10346199;28;19913;-93
2021/10/15 11:43:45;;;;;;;;;;;;;;;20.89;61.61;101961.66;10345064;28;19921;-94
2021/10/15 11:48:48;;;;;;;;;;;;;;;20.54;65.05;101963.56;10345605;28;19921;-92
2021/10/15 11:53:49;;;;;;;;;;;;;;;20.23;64.18;101975.69;10347275;28;19971;-93
2021/10/15 11:58:50;;;;;;;;;;;;;;;19.40;66.20;101975.34;10342720;28;19924;-90
2021/10/15 12:03:51;;;;;;;;;;;;;;;19.23;62.05;101977.88;10350711;28;19929;-89
2021/10/15 12:08:53;;;;;;;;;;;;;;;20.60;60.27;101982.72;10353019;28;20362;-90
2021/10/15 12:13:53;;;;;;;;;;;;;;;19.97;60.96;101984.13;10351162;28;19914;-91
2021/10/15 12:19:04;;;;;;;;;;;;;;;19.21;64.78;101985.50;10368156;28;19918;-91
2021/10/15 12:24:05;;;;;;;;;;;;;;;19.08;62.45;101990.28;10389915;28;19917;-93
2021/10/15 12:29:05;;;;;;;;;;;;;;;19.47;62.90;101991.75;10384725;28;19973;-93
2021/10/15 12:34:09;;;;;;;;;;;;;;;20.61;67.16;101989.94;10379929;28;19914;-93
2021/10/15 12:39:25;;;;;;;;;;;;;;;20.58;65.17;101995.91;10355991;28;19913;-92
2021/10/15 12:44:29;;;;;;;;;;;;;;;20.92;64.32;101992.56;10356521;28;19922;-93
2021/10/15 12:49:30;;;;;;;;;;;;;;;21.23;63.22;101991.31;10351752;28;19914;-94
2021/10/15 12:54:40;;;;;;;;;;;;;;;21.07;57.69;101995.66;10352688;28;19917;-93
2021/10/15 12:59:40;;;;;;;;;;;;;;;21.26;54.15;101993.59;10350493;28;19965;-91
2021/10/15 13:04:40;;;;;;;;;;;;;;;21.04;58.79;102005.25;10346084;28;19921;-92
2021/10/15 13:09:41;;;;;;;;;;;;;;;21.15;60.39;101995.28;10346053;28;19933;-92
2021/10/15 13:14:41;;;;;;;;;;;;;;;21.51;61.50;101999.69;10343537;28;19917;-92
2021/10/15 13:19:41;;;;;;;;;;;;;;;21.45;63.26;102003.41;10345410;28;20361;-91
2021/10/15 13:24:43;;;;;;;;;;;;;;;21.81;55.83;102001.38;10345849;28;19922;-93
2021/10/15 13:29:43;;;;;;;;;;;;;;;21.09;57.96;102007.25;10345911;28;19925;-93
2021/10/15 13:34:47;;;;;;;;;;;;;;;20.21;62.23;102014.44;10343028;28;19924;-92
2021/10/15 13:39:50;;;;;;;;;;;;;;;20.55;60.83;102025.78;10343124;28;20024;-92
2021/10/15 13:50:09;;;;;;;;;;;;;;;20.84;62.44;102018.53;10340852;28;19914;-91
2021/10/15 13:55:10;;;;;;;;;;;;;;;20.81;59.48;102021.78;10321931;28;19921;-91
2021/10/15 14:00:15;;;;;;;;;;;;;;;20.02;63.62;102030.16;10324190;28;19913;-92
2021/10/15 14:05:15;;;;;;;;;;;;;;;18.99;64.50;102030.94;10339973;28;19913;-92
2021/10/15 14:10:16;;;;;;;;;;;;;;;19.16;64.02;102039.44;10339260;28;20333;-91
2021/10/15 14:15:16;;;;;;;;;;;;;;;19.40;63.89;102048.66;10340421;28;19971;-91
2021/10/15 14:20:16;;;;;;;;;;;;;;;19.45;60.58;102046.91;10339132;28;19965;-88
2021/10/15 14:25:16;;;;;;;;;;;;;;;19.41;60.50;102042.97;10338478;28;19918;-90
2021/10/15 14:30:21;;;;;;;;;;;;;;;19.05;65.24;102050.09;10339107;28;20003;-90
2021/10/15 14:35:21;;;;;;;;;;;;;;;18.87;62.15;102049.22;10339158;28;19925;-89
2021/10/15 14:40:22;;;;;;;;;;;;;;;18.52;66.09;102055.16;10339662;28;20029;-90
2021/10/15 14:45:22;;;;;;;;;;;;;;;18.44;55.67;102055.41;10341176;28;19921;-88
2021/10/15 14:50:22;;;;;;;;;;;;;;;18.07;58.96;102064.31;10339442;28;19980;-91
2021/10/15 14:55:25;;;;;;;;;;;;;;;17.50;63.73;102060.50;10338478;28;19928;-90
2021/10/15 15:00:26;;;;;;;;;;;;;;;16.95;64.77;102069.03;10339110;28;19956;-89
2021/10/15 15:05:26;;;;;;;;;;;;;;;16.70;65.03;102068.78;10339736;28;19914;-90
2021/10/15 15:10:26;;;;;;;;;;;;;;;16.48;66.75;102073.59;10339634;28;19918;-91
2021/10/15 15:15:26;;;;;;;;;;;;;;;16.29;67.42;102082.59;10338404;28;19965;-90
2021/10/15 15:20:27;;;;;;;;;;;;;;;16.09;67.31;102081.72;10336762;28;19924;-90
2021/10/15 15:25:27;;;;;;;;;;;;;;;15.92;67.25;102084.81;10336875;28;19976;-87
2021/10/15 15:30:27;;;;;;;;;;;;;;;15.67;67.58;102092.69;10335908;28;20021;-89
2021/10/15 15:35:28;;;;;;;;;;;;;;;15.45;68.40;102091.88;10334935;28;20072;-90
2021/10/15 15:40:28;;;;;;;;;;;;;;;15.29;68.74;102103.13;10334617;28;19925;-89
2021/10/15 15:45:28;;;;;;;;;;;;;;;15.20;68.62;102099.69;10334319;28;19980;-89
2021/10/15 15:50:30;;;;;;;;;;;;;;;15.15;68.67;102099.44;10334869;28;19953;-88
2021/10/15 15:55:30;;;;;;;;;;;;;;;15.09;68.10;102112.00;10334523;28;19921;-89
2021/10/15 16:00:30;;;;;;;;;;;;;;;14.93;68.98;102109.53;10318247;28;20364;-88
2021/10/15 16:05:31;;;;;;;;;;;;;;;14.83;68.78;102112.59;10334889;28;20013;-89
2021/10/15 16:10:31;;;;;;;;;;;;;;;14.71;67.36;102108.75;10335870;28;19921;-90
2021/10/15 16:15:31;;;;;;;;;;;;;;;14.55;69.02;102117.16;10337413;28;19968;-91
2021/10/15 16:20:31;;;;;;;;;;;;;;;14.49;68.55;102116.03;10350237;28;19914;-91
2021/10/15 16:25:32;;;;;;;;;;;;;;;14.49;68.46;102126.94;10335349;28;19921;-90
2021/10/15 16:30:32;;;;;;;;;;;;;;;14.45;68.77;102131.06;10334634;28;19914;-90
2021/10/15 16:35:32;;;;;;;;;;;;;;;14.29;68.31;102123.97;10337759;28;19917;-91
2021/10/15 16:40:33;;;;;;;;;;;;;;;14.11;69.60;102129.03;10334901;28;19918;-91
2021/10/15 16:45:33;;;;;;;;;;;;;;;14.01;69.01;102134.75;10337081;28;20009;-90
2021/10/15 16:50:33;;;;;;;;;;;;;;;13.86;69.39;102145.66;10344381;28;19917;-90
2021/10/15 16:55:33;;;;;;;;;;;;;;;13.67;68.89;102144.34;10344931;28;19922;-90
2021/10/15 17:00:34;;;;;;;;;;;;;;;13.46;68.83;102158.72;10341685;28;19969;-90
2021/10/15 17:05:35;;;;;;;;;;;;;;;13.31;69.22;102162.44;10340112;28;19918;-91
2021/10/15 17:10:36;;;;;;;;;;;;;;;13.20;69.21;102166.41;10343737;28;19929;-90
2021/10/15 17:15:36;;;;;;;;;;;;;;;13.09;68.53;102169.56;10342883;28;19924;-91
2021/10/15 17:20:36;;;;;;;;;;;;;;;12.95;68.86;102174.75;10342516;28;19921;-91
2021/10/15 17:25:37;;;;;;;;;;;;;;;12.80;68.67;102179.31;10342896;28;19918;-90
2021/10/15 17:30:37;;;;;;;;;;;;;;;12.68;68.77;102175.31;10339911;28;19984;-89
2021/10/15 17:35:39;;;;;;;;;;;;;;;12.54;69.32;102180.50;10340144;28;19917;-90
2021/10/15 17:40:39;;;;;;;;;;;;;;;12.44;69.18;102185.28;10341064;28;19925;-89
2021/10/15 17:45:39;;;;;;;;;;;;;;;12.33;69.48;102185.72;10340188;28;19928;-89
2021/10/15 17:50:40;;;;;;;;;;;;;;;12.25;69.36;102192.03;10341992;28;20000;-89
2021/10/15 17:55:40;;;;;;;;;;;;;;;12.17;69.21;102197.50;10340118;28;19943;-90
2021/10/15 18:00:40;;;;;;;;;;;;;;;12.05;69.23;102193.47;10339846;28;20356;-89
2021/10/15 18:05:41;;;;;;;;;;;;;;;11.95;69.40;102192.84;10342124;28;20024;-89
2021/10/15 18:10:41;;;;;;;;;;;;;;;11.89;69.37;102196.25;10340467;28;20429;-90
2021/10/15 18:15:44;;;;;;;;;;;;;;;11.86;69.31;102198.28;10339265;28;19918;-89
2021/10/15 18:20:44;;;;;;;;;;;;;;;11.89;69.36;102199.78;10340518;28;20342;-89
2021/10/15 18:25:44;;;;;;;;;;;;;;;11.86;69.17;102197.44;10340175;28;19918;-89
2021/10/15 18:30:45;;;;;;;;;;;;;;;11.82;69.52;102205.03;10338935;28;20060;-89
2021/10/15 18:35:45;;;;;;;;;;;;;;;11.91;70.29;102207.78;10340095;28;19922;-90
2021/10/15 18:40:45;;;;;;;;;;;;;;;12.06;70.42;102214.16;10339680;28;19918;-87
2021/10/15 18:45:45;;;;;;;;;;;;;;;12.21;71.22;102211.56;10338866;28;19949;-88
2021/10/15 18:50:46;;;;;;;;;;;;;;;12.31;71.24;102225.78;10338016;28;19921;-87
2021/10/15 18:55:46;;;;;;;;;;;;;;;12.26;70.73;102215.44;10336902;28;19917;-87
2021/10/15 19:00:46;;;;;;;;;;;;;;;12.13;70.51;102220.59;10336467;28;19959;-88
2021/10/15 19:05:47;;;;;;;;;;;;;;;11.94;70.22;102221.00;10337853;28;20297;-88
2021/10/15 19:10:47;;;;;;;;;;;;;;;11.75;69.97;102228.47;10340130;28;19920;-88
2021/10/15 19:15:48;;;;;;;;;;;;;;;11.62;69.70;102233.59;10367393;28;19957;-88
2021/10/15 19:20:48;;;;;;;;;;;;;;;11.47;70.07;102224.44;10381303;28;19922;-88
2021/10/15 19:25:48;;;;;;;;;;;;;;;11.46;70.26;102234.47;10343343;28;20337;-87
2021/10/15 19:30:48;;;;;;;;;;;;;;;11.58;70.83;102230.38;10340088;28;19929;-88
2021/10/15 19:35:49;;;;;;;;;;;;;;;11.80;71.60;102228.78;10335934;28;20012;-88
2021/10/15 19:40:49;;;;;;;;;;;;;;;12.07;71.98;102233.00;10337582;28;19918;-88
2021/10/15 19:45:50;;;;;;;;;;;;;;;12.31;72.43;102242.91;10334484;28;20004;-88
2021/10/15 19:50:50;;;;;;;;;;;;;;;12.52;72.33;102241.47;10335665;28;19922;-88
2021/10/15 19:55:51;;;;;;;;;;;;;;;12.70;72.37;102239.34;10335510;28;19922;-87
2021/10/15 20:00:51;;;;;;;;;;;;;;;12.85;71.77;102238.56;10334634;28;19914;-88
2021/10/15 20:05:51;;;;;;;;;;;;;;;12.84;72.41;102247.75;10335079;28;19925;-88
2021/10/15 20:10:52;;;;;;;;;;;;;;;12.72;71.56;102239.16;10334976;28;19965;-88
2021/10/15 20:15:52;;;;;;;;;;;;;;;12.56;70.26;102251.81;10334019;28;19992;-89
2021/10/15 20:20:52;;;;;;;;;;;;;;;12.31;70.97;102248.34;10335676;28;19921;-88
2021/10/15 20:25:53;;;;;;;;;;;;;;;12.08;70.51;102252.84;10343265;28;20358;-88
2021/10/15 20:30:53;;;;;;;;;;;;;;;11.86;70.29;102255.28;10351876;28;19918;-88
2021/10/15 20:35:53;;;;;;;;;;;;;;;11.66;70.20;102255.81;10341067;28;19964;-89
2021/10/15 20:40:53;;;;;;;;;;;;;;;11.44;70.13;102251.91;10342638;28;19914;-88
2021/10/15 20:45:54;;;;;;;;;;;;;;;11.33;70.37;102261.25;10341437;28;19965;-88
2021/10/15 20:50:54;;;;;;;;;;;;;;;11.29;70.03;102266.13;10341254;28;20350;-88
2021/10/15 20:55:55;;;;;;;;;;;;;;;11.34;69.94;102261.06;10340439;28;20373;-88
2021/10/15 21:00:55;;;;;;;;;;;;;;;11.39;70.30;102261.41;10341164;28;19964;-88
2021/10/15 21:05:55;;;;;;;;;;;;;;;11.51;70.75;102275.47;10341269;28;19920;-88
2021/10/15 21:10:55;;;;;;;;;;;;;;;11.66;71.56;102264.78;10341013;28;20408;-88
2021/10/15 21:15:56;;;;;;;;;;;;;;;11.86;71.72;102270.72;10339972;28;19925;-88
2021/10/15 21:20:56;;;;;;;;;;;;;;;12.07;72.38;102271.00;10323142;28;20429;-87
2021/10/15 21:25:56;;;;;;;;;;;;;;;12.24;72.67;102277.22;10339928;28;19924;-88
2021/10/15 21:30:56;;;;;;;;;;;;;;;12.43;72.85;102280.56;10340620;28;19917;-88
2021/10/15 21:35:57;;;;;;;;;;;;;;;12.35;73.61;102278.75;10337729;28;19922;-88
2021/10/15 21:40:57;;;;;;;;;;;;;;;12.38;73.39;102285.66;10339359;28;19921;-87
2021/10/15 21:45:57;;;;;;;;;;;;;;;12.40;73.71;102278.22;10337972;28;19918;-88
2021/10/15 21:50:57;;;;;;;;;;;;;;;12.40;73.63;102276.34;10339088;28;19925;-88
2021/10/15 21:55:58;;;;;;;;;;;;;;;12.54;72.77;102278.31;10337148;28;19921;-88
2021/10/15 22:00:58;;;;;;;;;;;;;;;12.53;72.42;102276.59;10338683;28;19970;-88
2021/10/15 22:05:58;;;;;;;;;;;;;;;12.40;71.93;102289.91;10338357;28;20297;-88
2021/10/15 22:10:59;;;;;;;;;;;;;;;12.24;71.10;102282.66;10320317;28;19922;-88
2021/10/15 22:15:59;;;;;;;;;;;;;;;12.05;70.64;102288.50;10336109;28;19971;-88
2021/10/15 22:20:59;;;;;;;;;;;;;;;11.77;70.67;102288.88;10338206;28;19926;-88
2021/10/15 22:25:59;;;;;;;;;;;;;;;11.55;70.50;102293.13;10337766;28;19964;-88
2021/10/15 22:31:00;;;;;;;;;;;;;;;11.45;70.63;102291.56;10338227;28;19972;-88
2021/10/15 22:36:01;;;;;;;;;;;;;;;11.52;70.91;102295.28;10337585;28;19917;-88
2021/10/15 22:41:01;;;;;;;;;;;;;;;11.63;71.48;102292.25;10336408;28;19960;-88
2021/10/15 22:46:01;;;;;;;;;;;;;;;11.69;72.75;102280.72;10336715;28;19964;-88
2021/10/15 22:51:01;;;;;;;;;;;;;;;11.95;73.00;102288.69;10336686;28;20000;-88
2021/10/15 22:56:02;;;;;;;;;;;;;;;12.22;72.71;102281.13;10336283;28;19922;-88
2021/10/15 23:01:03;;;;;;;;;;;;;;;12.39;72.97;102279.25;10336500;28;19964;-88
2021/10/15 23:06:03;;;;;;;;;;;;;;;12.50;72.92;102276.97;10336995;28;19921;-88
2021/10/15 23:11:03;;;;;;;;;;;;;;;12.62;72.95;102271.16;10336921;28;20358;-88
2021/10/15 23:16:04;;;;;;;;;;;;;;;12.71;72.81;102283.69;10335196;28;19918;-88
2021/10/15 23:21:04;;;;;;;;;;;;;;;12.65;72.96;102277.06;10335351;28;19925;-88
2021/10/15 23:26:04;;;;;;;;;;;;;;;12.77;72.99;102280.25;10334074;28;19922;-88
2021/10/15 23:31:04;;;;;;;;;;;;;;;12.84;72.87;102283.94;10317361;28;19917;-87
2021/10/15 23:36:04;;;;;;;;;;;;;;;12.88;72.71;102274.38;10334804;28;19925;-88
2021/10/15 23:41:05;;;;;;;;;;;;;;;12.89;73.02;102277.94;10334615;28;20334;-88
2021/10/15 23:46:05;;;;;;;;;;;;;;;12.94;72.88;102283.72;10332341;28;19925;-88
2021/10/15 23:51:05;;;;;;;;;;;;;;;12.94;72.81;102281.00;10334474;28;19931;-88
2021/10/15 23:56:06;;;;;;;;;;;;;;;12.91;73.02;102279.47;10334619;28;19918;-87
